Terminal Aerodrome Forecast
Issued by NWS Sioux Falls, SD

Home | Current Version | Previous Version | Text Only | Print | Product List | Glossary On
Versions: 1 2 3 4 5 6 7 8 9 10 11 12 13 14 15 16 17 18 19 20
982
FTUS43 KFSD 142210 AAC
TAFFSD
TAF AMD
KFSD 142210Z 1422/1518 30015G22KT 6SM -SN SCT013 OVC022
      TEMPO 1422/1424 BKN013
     FM150000 34017G25KT P6SM OVC022
     FM150500 33016G26KT P6SM SCT030=

USA.gov is the U.S. government's official web portal to all federal, state and local government web resources and services.